KPBI

Palm Beach International Airport

West Palm Beach, Florida, USA
KPBI 211729Z 2118/2218 VRB06KT P6SM FEW025 SCT050 FM211900 22011KT P6SM SHRA VCTS SCT025CB BKN050 TEMPO 2119/2122 VRB15KT 4SM TSRA SCT015 BKN025CB FM220100 VRB06KT P6SM SCT025 FM221400 27006KT P6SM FEW025 SCT050
Issued Valid From Valid To
Jun-21 @ 17:29 UTC
(35 minutes ago)
Jun-21 @ 18:00 UTC
(4 minutes ago)
Jun-22 @ 18:00 UTC
(in 24 hours)
Jun-21 @ 18:00 to Jun-21 @ 19:00
KPBI 211729Z 2118/2218 VRB06KT P6SM FEW025 SCT050
Wind Visibility Clouds
Variable at 6 knots Greater than 6 miles
  • Few at 2,500' AGL
  • Scattered at 5,000' AGL
Temporary Jun-21 @ 19:00 to Jun-21 @ 22:00
TEMPO 2119/2122 VRB15KT 4SM TSRA SCT015 BKN025CB
Wind Visibility Clouds Conditions
Variable at 15 knots 4 miles
  • Scattered at 1,500' AGL
  • Broken at 2,500' AGL
  • Thunderstorm
  • Rain
From Jun-21 @ 19:00 to Jun-22 @ 01:00
FM211900 22011KT P6SM SHRA VCTS SCT025CB BKN050
Wind Visibility Clouds Conditions
220° at 11 knots Greater than 6 miles
  • Scattered at 2,500' AGL
  • Broken at 5,000' AGL
  • Rain
  • Area Thunderstorm
From Jun-22 @ 01:00 to Jun-22 @ 14:00
FM220100 VRB06KT P6SM SCT025
Wind Visibility Clouds
Variable at 6 knots Greater than 6 miles
  • Scattered at 2,500' AGL
From Jun-22 @ 14:00 to Jun-22 @ 18:00
FM221400 27006KT P6SM FEW025 SCT050
Wind Visibility Clouds
270° at 6 knots Greater than 6 miles
  • Few at 2,500' AGL
  • Scattered at 5,000' AGL
KPBI 211729Z 2118/2218 VRB06KT P6SM FEW025 SCT050 FM211900 22011KT P6SM SHRA VCTS SCT025CB BKN050 TEMPO 2119/2122 VRB15KT 4SM TSRA SCT015 BKN025CB FM220100 VRB06KT P6SM SCT025 FM221400 27006KT P6SM FEW025 SCT050
Issued Jun-21 @ 17:29 UTC
(35 minutes ago)
Valid From Jun-21 @ 18:00 UTC
(4 minutes ago)
Valid To Jun-22 @ 18:00 UTC
(in 24 hours)
Jun-21 @ 18:00 - Jun-21 @ 19:00
Wind Visibility
Variable at 6 knots Greater than 6 miles
Clouds
  • Few at 2,500' AGL
  • Scattered at 5,000' AGL
Temporary Jun-21 @ 19:00 - Jun-21 @ 22:00
Wind Visibility
Variable at 15 knots 4 miles
Clouds
  • Scattered at 1,500' AGL
  • Broken at 2,500' AGL
Conditions
  • Thunderstorm
  • Rain
From Jun-21 @ 19:00 - Jun-22 @ 01:00
Wind Visibility
220° at 11 knots Greater than 6 miles
Clouds
  • Scattered at 2,500' AGL
  • Broken at 5,000' AGL
Conditions
  • Rain
  • Area Thunderstorm
From Jun-22 @ 01:00 - Jun-22 @ 14:00
Wind Visibility
Variable at 6 knots Greater than 6 miles
Clouds
  • Scattered at 2,500' AGL
From Jun-22 @ 14:00 - Jun-22 @ 18:00
Wind Visibility
270° at 6 knots Greater than 6 miles
Clouds
  • Few at 2,500' AGL
  • Scattered at 5,000' AGL